createdAt,value
2018-04-02T00:01:10.187Z,29.40
2018-04-02T00:03:38.522Z,28.70
2018-04-02T00:06:06.625Z,28.30
2018-04-02T00:08:34.720Z,27.23
2018-04-02T00:11:02.842Z,26.87
2018-04-02T00:13:30.920Z,26.33
2018-04-02T00:15:59.010Z,25.20
2018-04-02T00:18:27.107Z,23.70
2018-04-02T00:20:55.519Z,24.50
2018-04-02T00:23:23.646Z,22.57
2018-04-02T00:25:51.754Z,24.10
2018-04-02T00:28:19.881Z,23.33
2018-04-02T00:30:48.020Z,22.13
2018-04-02T00:33:16.137Z,22.20
2018-04-02T00:35:44.253Z,21.47
2018-04-02T00:38:12.372Z,20.30
2018-04-02T00:40:40.477Z,19.57
2018-04-02T00:43:08.613Z,20.63
2018-04-02T00:45:36.700Z,20.33
2018-04-02T00:48:04.775Z,19.80
2018-04-02T00:50:32.883Z,18.93
2018-04-02T00:53:00.963Z,18.37
2018-04-02T00:55:29.087Z,19.57
2018-04-02T00:57:57.198Z,19.33
2018-04-02T01:00:25.316Z,19.47
2018-04-02T01:02:53.411Z,17.83
2018-04-02T01:05:21.567Z,18.47
2018-04-02T01:07:49.633Z,18.67
2018-04-02T01:10:17.895Z,18.73
2018-04-02T01:12:45.980Z,18.53
2018-04-02T01:15:14.083Z,17.90
2018-04-02T01:17:42.176Z,17.93
2018-04-02T01:20:10.293Z,18.57
2018-04-02T01:22:38.372Z,18.23
2018-04-02T01:25:06.480Z,19.67
2018-04-02T01:27:34.784Z,18.17
2018-04-02T01:30:02.902Z,17.80
2018-04-02T01:32:31.066Z,18.20
2018-04-02T01:34:59.162Z,18.20
2018-04-02T01:37:27.310Z,18.90
2018-04-02T01:39:55.389Z,19.80
2018-04-02T01:42:23.749Z,21.67
2018-04-02T01:44:51.839Z,19.00
2018-04-02T01:47:19.935Z,20.80
2018-04-02T01:49:48.195Z,22.73
2018-04-02T01:52:16.301Z,22.60
2018-04-02T01:54:44.414Z,22.43
2018-04-02T01:57:12.491Z,24.67
2018-04-02T01:59:40.602Z,24.43
2018-04-02T02:02:08.913Z,23.57
2018-04-02T02:04:37.029Z,25.10
2018-04-02T02:07:05.325Z,24.00
2018-04-02T02:09:33.433Z,24.57
2018-04-02T02:12:01.540Z,25.37
2018-04-02T02:14:29.628Z,25.27
2018-04-02T02:16:57.786Z,26.50
2018-04-02T02:19:26.041Z,27.03
2018-04-02T02:21:54.143Z,28.07
2018-04-02T02:24:22.227Z,27.57
2018-04-02T02:26:50.333Z,28.07
2018-04-02T02:29:18.438Z,27.97
2018-04-02T02:31:46.564Z,26.90
2018-04-02T02:34:14.850Z,29.00
2018-04-02T02:36:42.980Z,28.40
2018-04-02T02:39:11.096Z,29.03
2018-04-02T02:41:39.192Z,31.17
2018-04-02T02:44:07.298Z,29.80
2018-04-02T02:46:35.379Z,30.90
2018-04-02T02:49:03.485Z,30.77
2018-04-02T02:51:31.569Z,32.03
2018-04-02T02:53:59.684Z,32.67
2018-04-02T02:56:27.758Z,34.03
2018-04-02T02:58:55.898Z,33.50
2018-04-02T03:01:25.381Z,34.07
2018-04-02T03:03:53.496Z,32.97
2018-04-02T03:06:21.583Z,34.30
2018-04-02T03:08:49.693Z,34.63
2018-04-02T03:11:17.788Z,37.10
2018-04-02T03:13:45.962Z,36.90
2018-04-02T03:16:14.069Z,37.63
2018-04-02T03:18:42.249Z,39.37
2018-04-02T03:21:10.359Z,38.97
2018-04-02T03:23:38.448Z,38.40
2018-04-02T03:26:06.555Z,40.97
2018-04-02T03:28:34.650Z,41.23
2018-04-02T03:31:02.747Z,42.60
2018-04-02T03:33:30.804Z,42.73
2018-04-02T03:35:58.954Z,42.60
2018-04-02T03:38:27.040Z,41.27
2018-04-02T03:40:55.198Z,40.00
2018-04-02T03:43:23.314Z,41.10
2018-04-02T03:45:51.439Z,40.77
2018-04-02T03:48:19.556Z,41.60
2018-04-02T03:50:47.666Z,40.60
2018-04-02T03:53:15.756Z,41.30
2018-04-02T03:55:43.867Z,41.37
2018-04-02T03:58:11.960Z,40.90
2018-04-02T04:00:40.086Z,41.93
2018-04-02T04:03:08.365Z,41.23
2018-04-02T04:05:36.445Z,38.63
2018-04-02T04:08:04.568Z,39.93
2018-04-02T04:10:32.667Z,41.93
2018-04-02T04:13:00.770Z,39.27
2018-04-02T04:15:28.870Z,38.90
2018-04-02T04:17:56.970Z,37.00
2018-04-02T04:20:25.060Z,37.97
2018-04-02T04:22:53.158Z,37.33
2018-04-02T04:25:21.405Z,37.23
2018-04-02T04:27:49.492Z,38.87
2018-04-02T04:30:17.576Z,36.27
2018-04-02T04:32:45.842Z,35.40
2018-04-02T04:35:13.995Z,37.10
2018-04-02T04:37:42.078Z,35.53
2018-04-02T04:40:10.156Z,35.53
2018-04-02T04:42:38.264Z,35.53
2018-04-02T04:45:06.337Z,35.90
2018-04-02T04:47:34.505Z,34.80
2018-04-02T04:50:02.590Z,34.70
2018-04-02T04:52:30.791Z,33.93
2018-04-02T04:54:58.883Z,37.47
2018-04-02T04:57:26.964Z,34.07
2018-04-02T04:59:55.056Z,35.67
2018-04-02T05:02:23.380Z,33.70
2018-04-02T05:04:51.570Z,36.17
2018-04-02T05:07:19.662Z,35.50
2018-04-02T05:09:47.746Z,35.00
2018-04-02T05:12:15.901Z,34.17
2018-04-02T05:14:44.131Z,33.67
2018-04-02T05:17:12.389Z,32.10
2018-04-02T05:19:40.574Z,32.43
2018-04-02T05:22:08.765Z,34.50
2018-04-02T05:24:36.873Z,36.40
2018-04-02T05:27:04.966Z,34.47
2018-04-02T05:29:33.086Z,34.60
2018-04-02T05:32:01.642Z,36.07
2018-04-02T05:34:29.727Z,36.57
2018-04-02T05:36:58.166Z,37.67
2018-04-02T05:39:26.493Z,38.47
2018-04-02T05:41:54.599Z,38.67
2018-04-02T05:44:22.750Z,37.53
2018-04-02T05:46:51.094Z,37.73
2018-04-02T05:49:19.583Z,38.73
2018-04-02T05:51:47.706Z,39.30
2018-04-02T05:54:15.959Z,39.00
2018-04-02T05:56:44.275Z,37.27
2018-04-02T05:59:12.392Z,37.23
2018-04-02T06:01:40.584Z,37.93
2018-04-02T06:04:09.014Z,35.20
2018-04-02T06:06:37.144Z,36.40
2018-04-02T06:09:06.060Z,36.20
2018-04-02T06:11:34.223Z,36.53
2018-04-02T06:14:02.344Z,38.13
2018-04-02T06:16:30.447Z,35.80
2018-04-02T06:18:58.556Z,36.17
2018-04-02T06:21:26.769Z,39.97
2018-04-02T06:23:54.875Z,42.57
2018-04-02T06:26:23.365Z,53.17
2018-04-02T06:28:51.497Z,47.10
2018-04-02T06:31:19.615Z,50.03
2018-04-02T06:33:47.743Z,47.97
2018-04-02T06:36:16.183Z,45.03
2018-04-02T06:38:44.309Z,45.23
2018-04-02T06:41:12.392Z,49.03
2018-04-02T06:43:40.498Z,43.23
2018-04-02T06:46:08.631Z,42.10
2018-04-02T06:48:36.822Z,44.63
2018-04-02T06:51:04.956Z,46.33
2018-04-02T06:53:33.346Z,41.27
2018-04-02T06:56:01.597Z,40.10
2018-04-02T06:58:29.689Z,41.87
2018-04-02T07:00:57.804Z,39.67
2018-04-02T07:03:25.948Z,41.23
2018-04-02T07:05:54.139Z,40.63
2018-04-02T07:08:22.295Z,40.60
2018-04-02T07:10:51.551Z,39.30
2018-04-02T07:13:19.651Z,39.13
2018-04-02T07:15:47.786Z,41.60
2018-04-02T07:18:16.174Z,44.90
2018-04-02T07:20:44.280Z,43.07
2018-04-02T07:23:12.586Z,39.33
2018-04-02T07:25:40.717Z,39.97
2018-04-02T07:28:08.965Z,30.00
2018-04-02T07:30:37.160Z,31.60
2018-04-02T07:33:05.234Z,36.47
2018-04-02T07:35:33.576Z,34.83
2018-04-02T07:38:01.724Z,29.60
2018-04-02T07:40:29.798Z,30.83
2018-04-02T07:42:57.900Z,25.93
2018-04-02T07:45:26.254Z,30.40
2018-04-02T07:47:54.377Z,26.80
2018-04-02T07:50:22.579Z,26.17
2018-04-02T07:52:50.855Z,25.10
2018-04-02T07:55:19.202Z,27.53
2018-04-02T07:57:47.314Z,26.73
2018-04-02T08:00:15.532Z,27.90
2018-04-02T08:02:43.692Z,23.97
2018-04-02T08:05:12.699Z,24.60
2018-04-02T08:07:41.016Z,26.23
2018-04-02T08:10:09.380Z,27.03
2018-04-02T08:12:38.437Z,29.00
2018-04-02T08:15:06.793Z,29.20
2018-04-02T08:17:35.192Z,33.03
2018-04-02T08:20:03.457Z,33.27
2018-04-02T08:22:31.838Z,26.73
2018-04-02T08:25:00.270Z,29.83
2018-04-02T08:27:28.455Z,28.70
2018-04-02T08:29:57.089Z,30.87
2018-04-02T08:32:25.266Z,31.13
2018-04-02T08:34:53.571Z,30.33
2018-04-02T08:37:21.813Z,26.43
2018-04-02T08:39:49.900Z,35.37
2018-04-02T08:42:18.381Z,31.03
2018-04-02T08:44:46.625Z,36.20
2018-04-02T08:47:15.089Z,36.53
2018-04-02T08:49:43.490Z,38.73
2018-04-02T08:52:12.045Z,43.57
2018-04-02T08:54:40.204Z,41.40
2018-04-02T08:57:08.622Z,41.60
2018-04-02T08:59:36.847Z,43.57
2018-04-02T09:02:04.979Z,46.27
2018-04-02T09:04:33.086Z,46.20
2018-04-02T09:07:01.195Z,49.90
2018-04-02T09:09:29.346Z,49.97
2018-04-02T09:11:57.471Z,45.17
2018-04-02T09:14:26.021Z,52.47
2018-04-02T09:16:59.497Z,53.17
2018-04-02T09:19:29.997Z,56.47
2018-04-02T09:21:58.910Z,56.47
2018-04-02T09:24:26.979Z,52.50
2018-04-02T09:26:55.086Z,56.90
2018-04-02T09:29:23.201Z,51.27
2018-04-02T09:31:51.439Z,48.30
2018-04-02T09:34:19.568Z,52.13
2018-04-02T09:36:47.674Z,60.83
2018-04-02T09:39:16.012Z,57.27
2018-04-02T09:41:44.187Z,62.13
2018-04-02T09:44:12.277Z,63.30
2018-04-02T09:46:40.384Z,63.63
2018-04-02T09:49:08.668Z,62.03
2018-04-02T09:51:37.068Z,59.90
2018-04-02T09:54:05.542Z,62.37
2018-04-02T09:56:33.795Z,65.27
2018-04-02T09:59:02.176Z,66.17
2018-04-02T10:01:30.262Z,68.53
2018-04-02T10:03:58.678Z,61.57
2018-04-02T10:06:27.078Z,73.07
2018-04-02T10:08:55.384Z,65.50
2018-04-02T10:11:23.749Z,64.50
2018-04-02T10:13:52.117Z,55.90
2018-04-02T10:16:20.252Z,55.73
2018-04-02T10:18:48.589Z,61.90
2018-04-02T10:21:16.918Z,59.57
2018-04-02T10:23:45.150Z,60.77
2018-04-02T10:26:13.456Z,64.90
2018-04-02T10:28:41.830Z,65.17
2018-04-02T10:31:10.134Z,64.63
2018-04-02T10:33:38.563Z,63.50
2018-04-02T10:36:06.731Z,61.20
2018-04-02T10:38:34.860Z,62.77
2018-04-02T10:41:02.970Z,58.37
2018-04-02T10:43:31.124Z,58.97
2018-04-02T10:45:59.402Z,57.23
2018-04-02T10:48:27.559Z,58.87
2018-04-02T10:50:55.630Z,56.73
2018-04-02T10:53:23.826Z,60.23
2018-04-02T10:55:52.077Z,57.07
2018-04-02T10:58:20.161Z,58.73
2018-04-02T11:00:48.465Z,56.73
2018-04-02T11:03:17.140Z,56.63
2018-04-02T11:05:45.260Z,59.30
2018-04-02T11:08:13.577Z,66.60
2018-04-02T11:10:42.424Z,62.40
2018-04-02T11:13:10.524Z,57.77
2018-04-02T11:15:38.613Z,55.17
2018-04-02T11:18:06.971Z,53.50
2018-04-02T11:20:35.095Z,54.60
2018-04-02T11:23:03.191Z,53.93
2018-04-02T11:25:31.548Z,50.00
2018-04-02T11:27:59.912Z,46.37
2018-04-02T11:30:28.000Z,49.60
2018-04-02T11:32:56.351Z,50.13
2018-04-02T11:35:24.427Z,53.33
2018-04-02T11:37:52.713Z,47.70
2018-04-02T11:40:20.976Z,44.30
2018-04-02T11:42:49.132Z,43.13
2018-04-02T11:45:17.473Z,47.63
2018-04-02T11:47:45.581Z,53.37
2018-04-02T11:50:13.686Z,41.27
2018-04-02T11:52:41.849Z,44.10
2018-04-02T11:55:09.995Z,50.03
2018-04-02T11:57:38.080Z,45.53
2018-04-02T12:00:06.212Z,46.17
2018-04-02T12:02:34.410Z,41.10
2018-04-02T12:05:02.586Z,41.37
2018-04-02T12:07:30.761Z,40.93
2018-04-02T12:09:59.232Z,38.00
2018-04-02T12:12:27.421Z,39.63
2018-04-02T12:14:55.550Z,36.73
2018-04-02T12:17:23.859Z,42.33
2018-04-02T12:19:52.218Z,41.93
2018-04-02T12:22:20.497Z,36.40
2018-04-02T12:24:48.695Z,35.57
2018-04-02T12:27:17.237Z,33.43
2018-04-02T12:29:45.342Z,34.30
2018-04-02T12:32:13.821Z,31.07
2018-04-02T12:34:42.222Z,33.30
2018-04-02T12:37:10.412Z,33.20
2018-04-02T12:39:38.646Z,36.63
2018-04-02T12:42:07.011Z,37.30
2018-04-02T12:44:35.172Z,31.80
2018-04-02T12:47:03.449Z,35.50
2018-04-02T12:49:31.728Z,35.47
2018-04-02T12:51:59.823Z,34.80
2018-04-02T12:54:28.006Z,35.70
2018-04-02T12:56:56.346Z,28.20
2018-04-02T12:59:24.722Z,31.57
2018-04-02T13:01:53.134Z,33.03
2018-04-02T13:04:21.677Z,32.50
2018-04-02T13:06:50.188Z,33.80
2018-04-02T13:09:18.607Z,31.37
2018-04-02T13:11:47.143Z,28.70
2018-04-02T13:14:15.364Z,31.73
2018-04-02T13:16:43.702Z,29.27
2018-04-02T13:19:12.366Z,30.10
2018-04-02T13:21:40.537Z,30.60
2018-04-02T13:24:08.768Z,28.43
2018-04-02T13:26:37.216Z,26.97
2018-04-02T13:29:05.320Z,29.70
2018-04-02T13:31:33.715Z,28.37
2018-04-02T13:34:02.076Z,30.70
2018-04-02T13:36:30.380Z,29.13
2018-04-02T13:38:58.733Z,24.97
2018-04-02T13:41:27.195Z,24.23
2018-04-02T13:43:55.629Z,28.17
2018-04-02T13:46:23.765Z,25.83
2018-04-02T13:48:51.937Z,22.40
2018-04-02T13:51:20.138Z,24.17
2018-04-02T13:53:48.331Z,24.97
2018-04-02T13:56:16.832Z,25.23
2018-04-02T13:58:45.010Z,24.20
2018-04-02T14:01:13.159Z,23.37
2018-04-02T14:03:41.873Z,24.13
2018-04-02T14:06:10.047Z,26.33
2018-04-02T14:08:38.185Z,26.73
2018-04-02T14:11:06.439Z,28.33
2018-04-02T14:13:34.486Z,22.43
2018-04-02T14:16:02.770Z,22.00
2018-04-02T14:18:31.036Z,25.07
2018-04-02T14:20:59.524Z,21.77
2018-04-02T14:23:27.646Z,21.47
2018-04-02T14:25:56.079Z,24.33
2018-04-02T14:28:24.286Z,23.23
2018-04-02T14:30:52.367Z,22.03
2018-04-02T14:33:20.523Z,22.77
2018-04-02T14:35:48.656Z,25.40
2018-04-02T14:38:16.861Z,21.97
2018-04-02T14:40:45.099Z,20.87
2018-04-02T14:43:13.248Z,20.63
2018-04-02T14:45:41.837Z,21.30
2018-04-02T14:48:09.976Z,22.00
2018-04-02T14:50:38.066Z,24.23
2018-04-02T14:53:06.162Z,21.17
2018-04-02T14:55:34.854Z,20.70
2018-04-02T14:58:02.946Z,21.30
2018-04-02T15:00:31.266Z,19.93
2018-04-02T15:02:59.660Z,19.93
2018-04-02T15:05:27.818Z,20.57
2018-04-02T15:07:56.023Z,20.67
2018-04-02T15:10:24.309Z,20.10
2018-04-02T15:12:52.509Z,19.07
2018-04-02T15:15:20.633Z,19.93
2018-04-02T15:17:49.015Z,19.07
2018-04-02T15:20:17.130Z,18.40
2018-04-02T15:22:45.322Z,20.43
2018-04-02T15:25:13.554Z,22.30
2018-04-02T15:27:41.845Z,20.73
2018-04-02T15:30:09.987Z,19.83
2018-04-02T15:32:38.089Z,19.43
2018-04-02T15:35:06.182Z,20.53
2018-04-02T15:37:34.496Z,19.83
2018-04-02T15:40:02.675Z,18.50
2018-04-02T15:42:30.812Z,20.80
2018-04-02T15:44:59.220Z,16.30
2018-04-02T15:47:27.570Z,18.63
2018-04-02T15:49:56.085Z,19.83
2018-04-02T15:52:24.267Z,19.80
2018-04-02T15:54:52.839Z,18.07
2018-04-02T15:57:21.214Z,17.93
2018-04-02T15:59:49.416Z,17.53
2018-04-02T16:02:17.875Z,16.57
2018-04-02T16:04:46.349Z,16.23
2018-04-02T16:07:14.697Z,16.00
2018-04-02T16:09:42.827Z,16.80
2018-04-02T16:12:11.191Z,15.83
2018-04-02T16:14:39.350Z,16.10
2018-04-02T16:17:07.678Z,16.27
2018-04-02T16:19:35.791Z,17.80
2018-04-02T16:22:04.277Z,16.57
2018-04-02T16:24:32.713Z,17.87
2018-04-02T16:27:01.076Z,15.93
2018-04-02T16:29:29.411Z,17.03
2018-04-02T16:31:58.179Z,17.23
2018-04-02T16:34:26.304Z,17.97
2018-04-02T16:36:54.449Z,18.17
2018-04-02T16:39:22.854Z,21.13
2018-04-02T16:41:51.099Z,20.07
2018-04-02T16:44:19.400Z,21.43
2018-04-02T16:46:48.104Z,20.90
2018-04-02T16:49:16.738Z,18.10
2018-04-02T16:51:44.872Z,23.53
2018-04-02T16:54:13.008Z,11.90
2018-04-02T16:56:41.380Z,15.30
2018-04-02T16:59:09.558Z,21.80
2018-04-02T17:01:37.669Z,22.37
2018-04-02T17:04:05.855Z,19.47
2018-04-02T17:06:34.190Z,20.67
2018-04-02T17:09:02.786Z,20.07
2018-04-02T17:11:31.085Z,26.10
2018-04-02T17:13:59.623Z,27.53
2018-04-02T17:16:27.725Z,23.17
2018-04-02T17:18:55.884Z,26.20
2018-04-02T17:21:24.130Z,24.93
2018-04-02T17:23:52.232Z,26.93
2018-04-02T17:26:20.525Z,16.53
2018-04-02T17:28:48.633Z,22.50
2018-04-02T17:31:17.146Z,26.47
2018-04-02T17:33:45.297Z,25.80
2018-04-02T17:36:13.538Z,25.73
2018-04-02T17:38:42.062Z,21.13
2018-04-02T17:41:10.130Z,24.00
2018-04-02T17:43:38.429Z,18.23
2018-04-02T17:46:06.724Z,24.33
2018-04-02T17:48:34.882Z,17.20
2018-04-02T17:51:02.962Z,18.20
2018-04-02T17:53:31.072Z,20.63
2018-04-02T17:55:59.329Z,19.93
2018-04-02T17:58:27.366Z,22.67
2018-04-02T18:00:55.448Z,24.13
2018-04-02T18:03:23.556Z,19.13
2018-04-02T18:05:51.677Z,24.20
2018-04-02T18:08:19.783Z,25.47
2018-04-02T18:10:47.856Z,23.83
2018-04-02T18:13:15.937Z,19.40
2018-04-02T18:15:44.027Z,22.30
2018-04-02T18:18:12.121Z,19.93
2018-04-02T18:20:40.205Z,18.90
2018-04-02T18:23:08.338Z,19.67
2018-04-02T18:25:36.482Z,22.63
2018-04-02T18:28:04.576Z,23.33
2018-04-02T18:30:32.722Z,21.53
2018-04-02T18:33:00.800Z,25.93
2018-04-02T18:35:28.933Z,14.83
2018-04-02T18:37:57.016Z,24.50
2018-04-02T18:40:25.119Z,24.13
2018-04-02T18:42:53.223Z,22.73
2018-04-02T18:45:21.365Z,22.83
2018-04-02T18:47:49.717Z,25.00
2018-04-02T18:50:18.021Z,29.10
2018-04-02T18:52:46.206Z,22.33
2018-04-02T18:55:14.500Z,20.97
2018-04-02T18:57:42.596Z,25.87
2018-04-02T19:00:10.738Z,25.73
2018-04-02T19:02:39.013Z,26.50
2018-04-02T19:05:07.151Z,20.47
2018-04-02T19:07:35.244Z,23.67
2018-04-02T19:10:03.644Z,23.77
2018-04-02T19:12:31.770Z,23.70
2018-04-02T19:14:59.898Z,23.03
2018-04-02T19:17:28.026Z,23.27
2018-04-02T19:19:56.123Z,23.93
2018-04-02T19:22:24.232Z,26.70
2018-04-02T19:24:52.317Z,19.97
2018-04-02T19:27:20.435Z,29.30
2018-04-02T19:29:48.530Z,23.73
2018-04-02T19:32:16.624Z,25.97
2018-04-02T19:34:44.720Z,27.27
2018-04-02T19:37:12.808Z,25.20
2018-04-02T19:39:41.118Z,27.97
2018-04-02T19:42:09.229Z,24.63
2018-04-02T19:44:37.295Z,24.00
2018-04-02T19:47:05.388Z,26.23
2018-04-02T19:49:33.699Z,27.07
2018-04-02T19:52:01.796Z,26.97
2018-04-02T19:54:30.044Z,27.77
2018-04-02T19:56:58.137Z,27.83
2018-04-02T19:59:26.298Z,25.13
2018-04-02T20:01:54.409Z,25.37
2018-04-02T20:04:22.508Z,25.03
2018-04-02T20:06:50.566Z,25.77
2018-04-02T20:09:18.687Z,25.90
2018-04-02T20:11:46.784Z,25.20
2018-04-02T20:14:14.893Z,28.30
2018-04-02T20:16:42.965Z,26.53
2018-04-02T20:19:11.062Z,24.17
2018-04-02T20:21:39.233Z,23.10
2018-04-02T20:24:07.369Z,26.70
2018-04-02T20:26:35.497Z,24.67
2018-04-02T20:29:03.620Z,23.30
2018-04-02T20:31:31.720Z,24.07
2018-04-02T20:33:59.815Z,24.93
2018-04-02T20:36:27.920Z,11.83
2018-04-02T20:38:56.005Z,24.33
2018-04-02T20:41:24.344Z,23.73
2018-04-02T20:43:52.485Z,25.87
2018-04-02T20:46:20.574Z,26.03
2018-04-02T20:48:48.681Z,21.37
2018-04-02T20:51:16.774Z,22.23
2018-04-02T20:53:44.854Z,22.70
2018-04-02T20:56:13.061Z,19.70
2018-04-02T20:58:41.145Z,16.30
2018-04-02T21:01:09.278Z,20.43
2018-04-02T21:03:37.379Z,20.20
2018-04-02T21:06:05.686Z,18.73
2018-04-02T21:08:33.876Z,18.77
2018-04-02T21:11:01.977Z,19.47
2018-04-02T21:13:30.075Z,18.20
2018-04-02T21:15:58.164Z,17.87
2018-04-02T21:18:26.227Z,15.87
2018-04-02T21:20:54.344Z,17.77
2018-04-02T21:23:22.415Z,19.27
2018-04-02T21:25:50.539Z,18.40
2018-04-02T21:28:19.872Z,20.17
2018-04-02T21:30:47.983Z,18.30
2018-04-02T21:33:16.070Z,19.30
2018-04-02T21:35:44.183Z,20.67
2018-04-02T21:38:12.242Z,19.63
2018-04-02T21:40:40.343Z,19.30
2018-04-02T21:43:08.445Z,18.40
2018-04-02T21:45:36.555Z,21.33
2018-04-02T21:48:04.624Z,20.20
2018-04-02T21:50:32.829Z,21.10
2018-04-02T21:53:00.923Z,20.67
2018-04-02T21:55:29.215Z,20.13
2018-04-02T21:57:57.338Z,20.07
2018-04-02T22:00:25.438Z,19.03
2018-04-02T22:02:54.656Z,19.63
2018-04-02T22:05:23.315Z,17.97
2018-04-02T22:07:51.390Z,17.97
2018-04-02T22:10:20.604Z,18.30
2018-04-02T22:12:48.872Z,17.73
2018-04-02T22:15:16.979Z,15.70
2018-04-02T22:17:45.089Z,13.87
2018-04-02T22:20:13.217Z,10.93
2018-04-02T22:22:41.306Z,9.33
2018-04-02T22:25:09.531Z,8.70
2018-04-02T22:27:37.849Z,7.50
2018-04-02T22:30:06.286Z,8.60
2018-04-02T22:32:34.373Z,7.43
2018-04-02T22:35:02.448Z,7.77
2018-04-02T22:37:30.564Z,7.57
2018-04-02T22:39:58.623Z,7.57
2018-04-02T22:42:26.783Z,6.50
2018-04-02T22:44:54.907Z,6.77
2018-04-02T22:47:23.004Z,7.27
2018-04-02T22:49:51.093Z,6.43
2018-04-02T22:52:19.200Z,6.53
2018-04-02T22:54:47.495Z,7.20
2018-04-02T22:57:15.688Z,5.70
2018-04-02T22:59:43.767Z,5.90
2018-04-02T23:02:11.838Z,5.97
2018-04-02T23:04:39.918Z,6.07
2018-04-02T23:07:08.013Z,5.63
2018-04-02T23:09:36.096Z,6.20
2018-04-02T23:12:04.181Z,5.80
2018-04-02T23:14:32.367Z,6.70
2018-04-02T23:17:00.472Z,6.03
2018-04-02T23:19:28.651Z,6.13
2018-04-02T23:21:56.755Z,6.00
2018-04-02T23:24:24.858Z,6.10
2018-04-02T23:26:52.921Z,6.37
2018-04-02T23:29:21.018Z,6.17
2018-04-02T23:31:49.135Z,5.97
2018-04-02T23:34:17.223Z,6.23
2018-04-02T23:36:45.344Z,6.40
2018-04-02T23:39:13.508Z,5.83
2018-04-02T23:41:41.592Z,6.00
2018-04-02T23:44:09.684Z,6.10
2018-04-02T23:46:37.785Z,6.43
2018-04-02T23:49:05.906Z,6.17
2018-04-02T23:51:33.988Z,6.60
2018-04-02T23:54:02.056Z,5.77
2018-04-02T23:56:30.158Z,5.80
2018-04-02T23:58:58.239Z,6.20
